sensor_id;sensor_type;location;lat;lon;timestamp;P1;durP1;ratioP1;P2;durP2;ratioP2
52816;SDS011;38687;43.330;21.924;2024-01-11T00:00:44;41.00;;;23.83;;
52816;SDS011;38687;43.330;21.924;2024-01-11T00:03:09;65.93;;;27.27;;
52816;SDS011;38687;43.330;21.924;2024-01-11T00:05:35;46.08;;;25.33;;
52816;SDS011;38687;43.330;21.924;2024-01-11T00:08:01;57.45;;;26.58;;
52816;SDS011;38687;43.330;21.924;2024-01-11T00:10:27;59.30;;;29.48;;
52816;SDS011;38687;43.330;21.924;2024-01-11T00:12:52;71.05;;;30.70;;
52816;SDS011;38687;43.330;21.924;2024-01-11T00:15:17;66.28;;;35.95;;
52816;SDS011;38687;43.330;21.924;2024-01-11T00:17:43;48.60;;;28.35;;
52816;SDS011;38687;43.330;21.924;2024-01-11T00:20:09;69.90;;;34.65;;
52816;SDS011;38687;43.330;21.924;2024-01-11T00:22:35;62.78;;;35.42;;
52816;SDS011;38687;43.330;21.924;2024-01-11T00:25:01;55.60;;;33.40;;
52816;SDS011;38687;43.330;21.924;2024-01-11T00:27:26;74.80;;;30.58;;
52816;SDS011;38687;43.330;21.924;2024-01-11T00:29:53;70.25;;;34.10;;
52816;SDS011;38687;43.330;21.924;2024-01-11T00:32:18;85.10;;;36.72;;
52816;SDS011;38687;43.330;21.924;2024-01-11T00:34:46;44.83;;;27.20;;
52816;SDS011;38687;43.330;21.924;2024-01-11T00:37:11;57.83;;;26.65;;
52816;SDS011;38687;43.330;21.924;2024-01-11T00:39:37;52.80;;;24.55;;
52816;SDS011;38687;43.330;21.924;2024-01-11T00:42:02;29.95;;;15.73;;
52816;SDS011;38687;43.330;21.924;2024-01-11T00:44:28;21.10;;;12.60;;
52816;SDS011;38687;43.330;21.924;2024-01-11T00:46:53;36.00;;;16.75;;
52816;SDS011;38687;43.330;21.924;2024-01-11T00:49:19;25.02;;;12.07;;
52816;SDS011;38687;43.330;21.924;2024-01-11T00:51:45;16.98;;;10.82;;
52816;SDS011;38687;43.330;21.924;2024-01-11T00:54:10;34.38;;;14.93;;
52816;SDS011;38687;43.330;21.924;2024-01-11T00:56:36;37.75;;;14.52;;
52816;SDS011;38687;43.330;21.924;2024-01-11T00:59:01;23.77;;;15.15;;
52816;SDS011;38687;43.330;21.924;2024-01-11T01:01:30;26.80;;;14.45;;
52816;SDS011;38687;43.330;21.924;2024-01-11T01:03:55;34.00;;;17.40;;
52816;SDS011;38687;43.330;21.924;2024-01-11T01:06:20;43.53;;;19.83;;
52816;SDS011;38687;43.330;21.924;2024-01-11T01:08:49;27.38;;;15.82;;
52816;SDS011;38687;43.330;21.924;2024-01-11T01:11:14;29.98;;;13.40;;
52816;SDS011;38687;43.330;21.924;2024-01-11T01:13:40;35.72;;;17.00;;
52816;SDS011;38687;43.330;21.924;2024-01-11T01:16:05;33.78;;;17.60;;
52816;SDS011;38687;43.330;21.924;2024-01-11T01:18:30;23.55;;;13.82;;
52816;SDS011;38687;43.330;21.924;2024-01-11T01:20:56;45.40;;;18.73;;
52816;SDS011;38687;43.330;21.924;2024-01-11T01:23:21;32.33;;;18.25;;
52816;SDS011;38687;43.330;21.924;2024-01-11T01:25:47;23.42;;;14.70;;
52816;SDS011;38687;43.330;21.924;2024-01-11T01:28:15;34.28;;;17.23;;
52816;SDS011;38687;43.330;21.924;2024-01-11T01:30:41;30.40;;;20.08;;
52816;SDS011;38687;43.330;21.924;2024-01-11T01:33:06;35.78;;;16.80;;
52816;SDS011;38687;43.330;21.924;2024-01-11T01:35:32;18.70;;;13.68;;
52816;SDS011;38687;43.330;21.924;2024-01-11T01:37:59;33.53;;;14.27;;
52816;SDS011;38687;43.330;21.924;2024-01-11T01:40:24;22.83;;;12.57;;
52816;SDS011;38687;43.330;21.924;2024-01-11T01:42:50;24.90;;;15.85;;
52816;SDS011;38687;43.330;21.924;2024-01-11T01:45:16;28.92;;;16.55;;
52816;SDS011;38687;43.330;21.924;2024-01-11T01:47:45;34.92;;;18.00;;
52816;SDS011;38687;43.330;21.924;2024-01-11T01:50:10;36.05;;;16.10;;
52816;SDS011;38687;43.330;21.924;2024-01-11T01:52:36;27.77;;;15.57;;
52816;SDS011;38687;43.330;21.924;2024-01-11T01:55:03;34.33;;;17.05;;
52816;SDS011;38687;43.330;21.924;2024-01-11T01:57:30;34.03;;;13.77;;
52816;SDS011;38687;43.330;21.924;2024-01-11T01:59:56;34.58;;;17.42;;
52816;SDS011;38687;43.330;21.924;2024-01-11T02:02:21;35.00;;;15.77;;
52816;SDS011;38687;43.330;21.924;2024-01-11T02:04:47;32.72;;;13.32;;
52816;SDS011;38687;43.330;21.924;2024-01-11T02:07:13;18.15;;;10.95;;
52816;SDS011;38687;43.330;21.924;2024-01-11T02:09:39;29.90;;;14.40;;
52816;SDS011;38687;43.330;21.924;2024-01-11T02:12:05;30.77;;;15.93;;
52816;SDS011;38687;43.330;21.924;2024-01-11T02:14:31;24.40;;;11.18;;
52816;SDS011;38687;43.330;21.924;2024-01-11T02:16:57;32.92;;;14.00;;
52816;SDS011;38687;43.330;21.924;2024-01-11T02:19:22;26.65;;;15.82;;
52816;SDS011;38687;43.330;21.924;2024-01-11T02:21:48;30.90;;;18.25;;
52816;SDS011;38687;43.330;21.924;2024-01-11T02:24:18;39.80;;;21.02;;
52816;SDS011;38687;43.330;21.924;2024-01-11T02:29:38;22.42;;;13.48;;
52816;SDS011;38687;43.330;21.924;2024-01-11T02:32:03;17.23;;;15.27;;
52816;SDS011;38687;43.330;21.924;2024-01-11T02:34:31;15.27;;;10.02;;
52816;SDS011;38687;43.330;21.924;2024-01-11T02:36:56;21.00;;;8.93;;
52816;SDS011;38687;43.330;21.924;2024-01-11T02:39:22;21.38;;;8.45;;
52816;SDS011;38687;43.330;21.924;2024-01-11T02:41:49;21.63;;;8.82;;
52816;SDS011;38687;43.330;21.924;2024-01-11T02:44:15;20.00;;;11.73;;
52816;SDS011;38687;43.330;21.924;2024-01-11T02:46:41;8.32;;;7.53;;
52816;SDS011;38687;43.330;21.924;2024-01-11T02:49:06;20.92;;;10.85;;
52816;SDS011;38687;43.330;21.924;2024-01-11T02:51:32;12.93;;;9.73;;
52816;SDS011;38687;43.330;21.924;2024-01-11T02:53:57;22.90;;;11.68;;
52816;SDS011;38687;43.330;21.924;2024-01-11T02:56:26;21.23;;;12.65;;
52816;SDS011;38687;43.330;21.924;2024-01-11T02:58:57;15.13;;;11.20;;
52816;SDS011;38687;43.330;21.924;2024-01-11T03:01:23;15.75;;;10.98;;
52816;SDS011;38687;43.330;21.924;2024-01-11T03:03:48;18.00;;;7.93;;
52816;SDS011;38687;43.330;21.924;2024-01-11T03:06:13;14.75;;;11.23;;
52816;SDS011;38687;43.330;21.924;2024-01-11T03:08:39;19.88;;;12.38;;
52816;SDS011;38687;43.330;21.924;2024-01-11T03:11:04;22.38;;;9.90;;
52816;SDS011;38687;43.330;21.924;2024-01-11T03:13:30;23.33;;;11.10;;
52816;SDS011;38687;43.330;21.924;2024-01-11T03:16:02;15.55;;;11.35;;
52816;SDS011;38687;43.330;21.924;2024-01-11T03:18:31;25.95;;;13.93;;
52816;SDS011;38687;43.330;21.924;2024-01-11T03:20:57;21.65;;;11.68;;
52816;SDS011;38687;43.330;21.924;2024-01-11T03:23:22;22.77;;;11.13;;
52816;SDS011;38687;43.330;21.924;2024-01-11T03:25:48;16.25;;;10.75;;
52816;SDS011;38687;43.330;21.924;2024-01-11T03:28:13;20.67;;;9.48;;
52816;SDS011;38687;43.330;21.924;2024-01-11T03:30:38;12.05;;;7.05;;
52816;SDS011;38687;43.330;21.924;2024-01-11T03:33:04;26.63;;;10.18;;
52816;SDS011;38687;43.330;21.924;2024-01-11T03:35:33;18.30;;;10.13;;
52816;SDS011;38687;43.330;21.924;2024-01-11T03:37:59;5.93;;;5.47;;
52816;SDS011;38687;43.330;21.924;2024-01-11T03:40:24;17.88;;;9.45;;
52816;SDS011;38687;43.330;21.924;2024-01-11T03:42:50;19.38;;;9.15;;
52816;SDS011;38687;43.330;21.924;2024-01-11T03:45:17;13.05;;;8.38;;
52816;SDS011;38687;43.330;21.924;2024-01-11T03:47:44;21.88;;;12.15;;
52816;SDS011;38687;43.330;21.924;2024-01-11T03:50:10;13.48;;;8.82;;
52816;SDS011;38687;43.330;21.924;2024-01-11T03:52:35;20.05;;;8.32;;
52816;SDS011;38687;43.330;21.924;2024-01-11T03:55:01;14.82;;;8.02;;
52816;SDS011;38687;43.330;21.924;2024-01-11T03:57:26;15.05;;;7.32;;
52816;SDS011;38687;43.330;21.924;2024-01-11T03:59:51;22.83;;;10.68;;
52816;SDS011;38687;43.330;21.924;2024-01-11T04:02:17;26.77;;;12.63;;
52816;SDS011;38687;43.330;21.924;2024-01-11T04:04:42;19.88;;;10.35;;
52816;SDS011;38687;43.330;21.924;2024-01-11T04:07:08;20.92;;;11.57;;
52816;SDS011;38687;43.330;21.924;2024-01-11T04:09:33;39.13;;;16.13;;
52816;SDS011;38687;43.330;21.924;2024-01-11T04:11:59;21.90;;;13.55;;
52816;SDS011;38687;43.330;21.924;2024-01-11T04:14:24;27.05;;;15.63;;
52816;SDS011;38687;43.330;21.924;2024-01-11T04:16:50;32.63;;;15.32;;
52816;SDS011;38687;43.330;21.924;2024-01-11T04:19:15;14.07;;;8.98;;
52816;SDS011;38687;43.330;21.924;2024-01-11T04:21:40;17.38;;;10.65;;
52816;SDS011;38687;43.330;21.924;2024-01-11T04:24:06;30.80;;;12.93;;
52816;SDS011;38687;43.330;21.924;2024-01-11T04:26:31;27.98;;;11.88;;
52816;SDS011;38687;43.330;21.924;2024-01-11T04:28:57;11.75;;;9.20;;
52816;SDS011;38687;43.330;21.924;2024-01-11T04:31:24;15.38;;;9.70;;
52816;SDS011;38687;43.330;21.924;2024-01-11T04:33:50;19.35;;;9.15;;
52816;SDS011;38687;43.330;21.924;2024-01-11T04:36:16;19.65;;;9.30;;
52816;SDS011;38687;43.330;21.924;2024-01-11T04:38:41;12.05;;;7.53;;
52816;SDS011;38687;43.330;21.924;2024-01-11T04:41:08;7.88;;;6.47;;
52816;SDS011;38687;43.330;21.924;2024-01-11T04:43:36;11.13;;;6.70;;
52816;SDS011;38687;43.330;21.924;2024-01-11T04:48:39;12.55;;;8.10;;
52816;SDS011;38687;43.330;21.924;2024-01-11T04:51:05;28.20;;;10.45;;
52816;SDS011;38687;43.330;21.924;2024-01-11T04:53:30;20.48;;;10.95;;
52816;SDS011;38687;43.330;21.924;2024-01-11T04:55:56;19.95;;;10.73;;
52816;SDS011;38687;43.330;21.924;2024-01-11T04:58:21;23.73;;;12.50;;
52816;SDS011;38687;43.330;21.924;2024-01-11T05:00:48;20.98;;;11.43;;
52816;SDS011;38687;43.330;21.924;2024-01-11T05:03:14;16.75;;;10.40;;
52816;SDS011;38687;43.330;21.924;2024-01-11T05:05:40;20.58;;;13.35;;
52816;SDS011;38687;43.330;21.924;2024-01-11T05:08:05;10.73;;;7.82;;
52816;SDS011;38687;43.330;21.924;2024-01-11T05:10:30;30.38;;;13.13;;
52816;SDS011;38687;43.330;21.924;2024-01-11T05:12:56;32.00;;;17.08;;
52816;SDS011;38687;43.330;21.924;2024-01-11T05:15:21;22.65;;;14.27;;
52816;SDS011;38687;43.330;21.924;2024-01-11T05:17:47;20.58;;;13.98;;
52816;SDS011;38687;43.330;21.924;2024-01-11T05:20:12;25.25;;;12.80;;
52816;SDS011;38687;43.330;21.924;2024-01-11T05:22:37;20.73;;;11.02;;
52816;SDS011;38687;43.330;21.924;2024-01-11T05:25:03;22.40;;;12.95;;
52816;SDS011;38687;43.330;21.924;2024-01-11T05:27:29;27.83;;;10.73;;
52816;SDS011;38687;43.330;21.924;2024-01-11T05:29:54;39.63;;;17.40;;
52816;SDS011;38687;43.330;21.924;2024-01-11T05:32:19;20.98;;;11.65;;
52816;SDS011;38687;43.330;21.924;2024-01-11T05:34:45;12.98;;;10.10;;
52816;SDS011;38687;43.330;21.924;2024-01-11T05:37:10;12.30;;;9.45;;
52816;SDS011;38687;43.330;21.924;2024-01-11T05:39:36;15.30;;;10.07;;
52816;SDS011;38687;43.330;21.924;2024-01-11T05:42:01;21.17;;;12.77;;
52816;SDS011;38687;43.330;21.924;2024-01-11T05:44:26;16.20;;;9.73;;
52816;SDS011;38687;43.330;21.924;2024-01-11T05:46:52;23.67;;;13.07;;
52816;SDS011;38687;43.330;21.924;2024-01-11T05:49:17;20.23;;;10.52;;
52816;SDS011;38687;43.330;21.924;2024-01-11T05:51:43;17.40;;;9.10;;
52816;SDS011;38687;43.330;21.924;2024-01-11T05:54:08;17.63;;;10.40;;
52816;SDS011;38687;43.330;21.924;2024-01-11T05:56:33;19.63;;;10.95;;
52816;SDS011;38687;43.330;21.924;2024-01-11T05:58:59;26.02;;;11.23;;
52816;SDS011;38687;43.330;21.924;2024-01-11T06:01:24;40.08;;;16.85;;
52816;SDS011;38687;43.330;21.924;2024-01-11T06:03:50;32.13;;;15.48;;
52816;SDS011;38687;43.330;21.924;2024-01-11T06:06:15;31.58;;;15.63;;
52816;SDS011;38687;43.330;21.924;2024-01-11T06:08:40;27.52;;;16.00;;
52816;SDS011;38687;43.330;21.924;2024-01-11T06:11:08;27.92;;;17.33;;
52816;SDS011;38687;43.330;21.924;2024-01-11T06:13:33;35.10;;;16.48;;
52816;SDS011;38687;43.330;21.924;2024-01-11T06:15:59;39.67;;;20.20;;
52816;SDS011;38687;43.330;21.924;2024-01-11T06:18:24;23.65;;;17.08;;
52816;SDS011;38687;43.330;21.924;2024-01-11T06:20:49;28.02;;;17.55;;
52816;SDS011;38687;43.330;21.924;2024-01-11T06:23:15;33.90;;;16.08;;
52816;SDS011;38687;43.330;21.924;2024-01-11T06:25:41;71.28;;;30.33;;
52816;SDS011;38687;43.330;21.924;2024-01-11T06:28:07;55.88;;;25.63;;
52816;SDS011;38687;43.330;21.924;2024-01-11T06:30:34;54.65;;;25.08;;
52816;SDS011;38687;43.330;21.924;2024-01-11T06:33:00;46.08;;;25.13;;
52816;SDS011;38687;43.330;21.924;2024-01-11T06:35:25;21.52;;;12.65;;
52816;SDS011;38687;43.330;21.924;2024-01-11T06:37:51;17.63;;;11.48;;
52816;SDS011;38687;43.330;21.924;2024-01-11T06:40:16;35.10;;;16.38;;
52816;SDS011;38687;43.330;21.924;2024-01-11T06:42:41;60.55;;;28.52;;
52816;SDS011;38687;43.330;21.924;2024-01-11T06:45:07;132.48;;;49.38;;
52816;SDS011;38687;43.330;21.924;2024-01-11T06:47:33;90.50;;;38.65;;
52816;SDS011;38687;43.330;21.924;2024-01-11T06:49:58;63.40;;;29.10;;
52816;SDS011;38687;43.330;21.924;2024-01-11T06:52:25;102.55;;;46.45;;
52816;SDS011;38687;43.330;21.924;2024-01-11T06:54:50;66.55;;;31.25;;
52816;SDS011;38687;43.330;21.924;2024-01-11T06:57:16;64.80;;;32.85;;
52816;SDS011;38687;43.330;21.924;2024-01-11T06:59:41;57.08;;;28.38;;
52816;SDS011;38687;43.330;21.924;2024-01-11T07:02:06;56.95;;;30.80;;
52816;SDS011;38687;43.330;21.924;2024-01-11T07:04:32;49.15;;;27.48;;
52816;SDS011;38687;43.330;21.924;2024-01-11T07:06:57;55.58;;;27.08;;
52816;SDS011;38687;43.330;21.924;2024-01-11T07:09:26;71.22;;;34.88;;
52816;SDS011;38687;43.330;21.924;2024-01-11T07:11:51;61.35;;;32.80;;
52816;SDS011;38687;43.330;21.924;2024-01-11T07:14:16;86.13;;;38.30;;
52816;SDS011;38687;43.330;21.924;2024-01-11T07:16:42;54.38;;;26.08;;
52816;SDS011;38687;43.330;21.924;2024-01-11T07:19:07;53.25;;;31.48;;
52816;SDS011;38687;43.330;21.924;2024-01-11T07:21:33;54.83;;;28.08;;
52816;SDS011;38687;43.330;21.924;2024-01-11T07:23:59;52.33;;;29.63;;
52816;SDS011;38687;43.330;21.924;2024-01-11T07:26:24;77.00;;;35.92;;
52816;SDS011;38687;43.330;21.924;2024-01-11T07:28:50;73.13;;;33.10;;
52816;SDS011;38687;43.330;21.924;2024-01-11T07:31:16;80.10;;;32.58;;
52816;SDS011;38687;43.330;21.924;2024-01-11T07:33:45;67.93;;;33.97;;
52816;SDS011;38687;43.330;21.924;2024-01-11T07:36:10;90.88;;;38.20;;
52816;SDS011;38687;43.330;21.924;2024-01-11T07:38:35;69.50;;;34.03;;
52816;SDS011;38687;43.330;21.924;2024-01-11T07:41:04;66.13;;;31.10;;
52816;SDS011;38687;43.330;21.924;2024-01-11T07:43:29;29.02;;;20.23;;
52816;SDS011;38687;43.330;21.924;2024-01-11T07:45:59;39.72;;;21.92;;
52816;SDS011;38687;43.330;21.924;2024-01-11T07:48:24;45.45;;;23.40;;
52816;SDS011;38687;43.330;21.924;2024-01-11T07:50:50;38.08;;;17.55;;
52816;SDS011;38687;43.330;21.924;2024-01-11T07:53:15;33.20;;;15.60;;
52816;SDS011;38687;43.330;21.924;2024-01-11T07:55:41;38.25;;;17.60;;
52816;SDS011;38687;43.330;21.924;2024-01-11T07:58:08;36.28;;;19.05;;
52816;SDS011;38687;43.330;21.924;2024-01-11T08:00:33;36.42;;;18.20;;
52816;SDS011;38687;43.330;21.924;2024-01-11T08:02:59;41.30;;;19.38;;
52816;SDS011;38687;43.330;21.924;2024-01-11T08:05:25;33.80;;;19.30;;
52816;SDS011;38687;43.330;21.924;2024-01-11T08:07:50;30.88;;;18.40;;
52816;SDS011;38687;43.330;21.924;2024-01-11T08:10:16;40.05;;;22.13;;
52816;SDS011;38687;43.330;21.924;2024-01-11T08:12:41;35.42;;;20.25;;
52816;SDS011;38687;43.330;21.924;2024-01-11T08:15:07;36.90;;;19.00;;
52816;SDS011;38687;43.330;21.924;2024-01-11T08:17:37;35.83;;;20.40;;
52816;SDS011;38687;43.330;21.924;2024-01-11T08:20:09;37.33;;;20.63;;
52816;SDS011;38687;43.330;21.924;2024-01-11T08:22:36;59.53;;;28.33;;
52816;SDS011;38687;43.330;21.924;2024-01-11T08:25:06;45.72;;;23.98;;
52816;SDS011;38687;43.330;21.924;2024-01-11T08:27:32;47.60;;;22.83;;
52816;SDS011;38687;43.330;21.924;2024-01-11T08:29:58;38.22;;;20.90;;
52816;SDS011;38687;43.330;21.924;2024-01-11T08:32:25;49.42;;;22.05;;
52816;SDS011;38687;43.330;21.924;2024-01-11T08:34:50;47.38;;;23.73;;
52816;SDS011;38687;43.330;21.924;2024-01-11T08:37:15;52.58;;;25.08;;
52816;SDS011;38687;43.330;21.924;2024-01-11T08:39:41;51.35;;;26.17;;
52816;SDS011;38687;43.330;21.924;2024-01-11T08:42:07;46.80;;;26.23;;
52816;SDS011;38687;43.330;21.924;2024-01-11T08:44:32;48.65;;;26.15;;
52816;SDS011;38687;43.330;21.924;2024-01-11T08:46:58;52.55;;;28.88;;
52816;SDS011;38687;43.330;21.924;2024-01-11T08:49:24;65.90;;;32.38;;
52816;SDS011;38687;43.330;21.924;2024-01-11T08:51:50;62.75;;;35.25;;
52816;SDS011;38687;43.330;21.924;2024-01-11T08:54:16;64.35;;;33.28;;
52816;SDS011;38687;43.330;21.924;2024-01-11T08:56:41;56.35;;;28.58;;
52816;SDS011;38687;43.330;21.924;2024-01-11T08:59:07;72.93;;;30.77;;
52816;SDS011;38687;43.330;21.924;2024-01-11T09:01:35;49.78;;;29.55;;
52816;SDS011;38687;43.330;21.924;2024-01-11T09:04:02;60.85;;;30.92;;
52816;SDS011;38687;43.330;21.924;2024-01-11T09:06:27;69.70;;;33.55;;
52816;SDS011;38687;43.330;21.924;2024-01-11T09:08:53;66.57;;;31.98;;
52816;SDS011;38687;43.330;21.924;2024-01-11T09:11:18;60.78;;;32.45;;
52816;SDS011;38687;43.330;21.924;2024-01-11T09:13:44;66.93;;;33.28;;
52816;SDS011;38687;43.330;21.924;2024-01-11T09:16:09;97.57;;;46.67;;
52816;SDS011;38687;43.330;21.924;2024-01-11T09:18:35;40.10;;;24.50;;
52816;SDS011;38687;43.330;21.924;2024-01-11T09:21:00;53.72;;;25.33;;
52816;SDS011;38687;43.330;21.924;2024-01-11T09:23:26;51.67;;;25.77;;
52816;SDS011;38687;43.330;21.924;2024-01-11T09:25:51;67.40;;;35.33;;
52816;SDS011;38687;43.330;21.924;2024-01-11T09:28:17;73.47;;;32.00;;
52816;SDS011;38687;43.330;21.924;2024-01-11T09:30:42;46.85;;;25.33;;
52816;SDS011;38687;43.330;21.924;2024-01-11T09:33:08;54.80;;;28.27;;
52816;SDS011;38687;43.330;21.924;2024-01-11T09:35:33;55.28;;;26.88;;
52816;SDS011;38687;43.330;21.924;2024-01-11T09:37:59;61.25;;;30.55;;
52816;SDS011;38687;43.330;21.924;2024-01-11T09:40:26;63.20;;;33.38;;
52816;SDS011;38687;43.330;21.924;2024-01-11T09:42:51;54.63;;;27.33;;
52816;SDS011;38687;43.330;21.924;2024-01-11T09:45:17;64.63;;;35.13;;
52816;SDS011;38687;43.330;21.924;2024-01-11T09:47:43;59.60;;;28.40;;
52816;SDS011;38687;43.330;21.924;2024-01-11T09:50:12;61.42;;;27.70;;
52816;SDS011;38687;43.330;21.924;2024-01-11T09:52:48;42.25;;;23.20;;
52816;SDS011;38687;43.330;21.924;2024-01-11T09:55:14;85.53;;;40.10;;
52816;SDS011;38687;43.330;21.924;2024-01-11T09:57:43;49.38;;;28.92;;
52816;SDS011;38687;43.330;21.924;2024-01-11T10:00:12;52.92;;;27.33;;
52816;SDS011;38687;43.330;21.924;2024-01-11T10:02:39;43.10;;;18.20;;
52816;SDS011;38687;43.330;21.924;2024-01-11T10:05:05;36.58;;;21.83;;
52816;SDS011;38687;43.330;21.924;2024-01-11T10:07:31;34.78;;;16.13;;
52816;SDS011;38687;43.330;21.924;2024-01-11T10:09:58;38.83;;;21.15;;
52816;SDS011;38687;43.330;21.924;2024-01-11T10:12:23;38.05;;;20.88;;
52816;SDS011;38687;43.330;21.924;2024-01-11T10:14:53;31.00;;;19.65;;
52816;SDS011;38687;43.330;21.924;2024-01-11T10:17:19;34.15;;;16.80;;
52816;SDS011;38687;43.330;21.924;2024-01-11T10:19:44;31.52;;;17.73;;
52816;SDS011;38687;43.330;21.924;2024-01-11T10:22:11;27.50;;;14.25;;
52816;SDS011;38687;43.330;21.924;2024-01-11T10:24:38;30.92;;;16.35;;
52816;SDS011;38687;43.330;21.924;2024-01-11T10:27:04;37.53;;;17.63;;
52816;SDS011;38687;43.330;21.924;2024-01-11T10:29:31;34.03;;;15.57;;
52816;SDS011;38687;43.330;21.924;2024-01-11T10:31:56;29.85;;;15.18;;
52816;SDS011;38687;43.330;21.924;2024-01-11T10:34:25;23.15;;;13.80;;
52816;SDS011;38687;43.330;21.924;2024-01-11T10:36:50;24.08;;;11.32;;
52816;SDS011;38687;43.330;21.924;2024-01-11T10:39:16;22.25;;;12.88;;
52816;SDS011;38687;43.330;21.924;2024-01-11T10:41:44;16.77;;;9.95;;
52816;SDS011;38687;43.330;21.924;2024-01-11T10:44:19;37.10;;;16.27;;
52816;SDS011;38687;43.330;21.924;2024-01-11T10:46:47;23.83;;;14.25;;
52816;SDS011;38687;43.330;21.924;2024-01-11T10:49:16;25.40;;;13.63;;
52816;SDS011;38687;43.330;21.924;2024-01-11T10:51:45;22.95;;;13.15;;
52816;SDS011;38687;43.330;21.924;2024-01-11T10:54:17;27.63;;;12.95;;
52816;SDS011;38687;43.330;21.924;2024-01-11T10:56:43;12.88;;;8.43;;
52816;SDS011;38687;43.330;21.924;2024-01-11T10:59:10;20.75;;;10.60;;
52816;SDS011;38687;43.330;21.924;2024-01-11T11:01:37;18.73;;;9.80;;
52816;SDS011;38687;43.330;21.924;2024-01-11T11:04:04;31.73;;;17.08;;
52816;SDS011;38687;43.330;21.924;2024-01-11T11:06:31;21.42;;;12.48;;
52816;SDS011;38687;43.330;21.924;2024-01-11T11:08:57;19.25;;;11.35;;
52816;SDS011;38687;43.330;21.924;2024-01-11T11:11:23;21.23;;;10.85;;
52816;SDS011;38687;43.330;21.924;2024-01-11T11:13:49;19.00;;;11.07;;
52816;SDS011;38687;43.330;21.924;2024-01-11T11:16:15;26.27;;;12.23;;
52816;SDS011;38687;43.330;21.924;2024-01-11T11:18:41;15.38;;;10.00;;
52816;SDS011;38687;43.330;21.924;2024-01-11T11:21:08;19.23;;;11.32;;
52816;SDS011;38687;43.330;21.924;2024-01-11T11:23:35;21.73;;;9.88;;
52816;SDS011;38687;43.330;21.924;2024-01-11T11:26:00;22.55;;;10.98;;
52816;SDS011;38687;43.330;21.924;2024-01-11T11:28:26;13.07;;;7.40;;
52816;SDS011;38687;43.330;21.924;2024-01-11T11:30:52;12.80;;;7.80;;
52816;SDS011;38687;43.330;21.924;2024-01-11T11:33:19;19.70;;;10.65;;
52816;SDS011;38687;43.330;21.924;2024-01-11T11:35:45;18.02;;;11.07;;
52816;SDS011;38687;43.330;21.924;2024-01-11T11:38:30;38.30;;;15.95;;
52816;SDS011;38687;43.330;21.924;2024-01-11T11:40:56;25.83;;;12.13;;
52816;SDS011;38687;43.330;21.924;2024-01-11T11:43:23;15.65;;;8.82;;
52816;SDS011;38687;43.330;21.924;2024-01-11T11:45:50;28.60;;;11.00;;
52816;SDS011;38687;43.330;21.924;2024-01-11T11:49:01;19.98;;;10.88;;
52816;SDS011;38687;43.330;21.924;2024-01-11T11:51:08;23.42;;;11.45;;
52816;SDS011;38687;43.330;21.924;2024-01-11T11:53:37;13.85;;;8.38;;
52816;SDS011;38687;43.330;21.924;2024-01-11T11:56:04;17.25;;;10.02;;
52816;SDS011;38687;43.330;21.924;2024-01-11T11:58:30;16.02;;;10.50;;
52816;SDS011;38687;43.330;21.924;2024-01-11T12:00:57;27.77;;;13.27;;
52816;SDS011;38687;43.330;21.924;2024-01-11T12:03:33;22.73;;;10.48;;
52816;SDS011;38687;43.330;21.924;2024-01-11T12:06:02;23.75;;;12.50;;
52816;SDS011;38687;43.330;21.924;2024-01-11T12:08:28;28.98;;;15.25;;
52816;SDS011;38687;43.330;21.924;2024-01-11T12:10:53;22.65;;;11.88;;
52816;SDS011;38687;43.330;21.924;2024-01-11T12:13:19;18.20;;;10.63;;
52816;SDS011;38687;43.330;21.924;2024-01-11T12:15:45;14.90;;;9.98;;
52816;SDS011;38687;43.330;21.924;2024-01-11T12:18:11;24.10;;;12.32;;
52816;SDS011;38687;43.330;21.924;2024-01-11T12:20:36;21.13;;;9.40;;
52816;SDS011;38687;43.330;21.924;2024-01-11T12:23:02;18.23;;;10.00;;
52816;SDS011;38687;43.330;21.924;2024-01-11T12:25:28;24.42;;;12.23;;
52816;SDS011;38687;43.330;21.924;2024-01-11T12:27:54;21.80;;;10.95;;
52816;SDS011;38687;43.330;21.924;2024-01-11T12:30:23;14.82;;;9.43;;
52816;SDS011;38687;43.330;21.924;2024-01-11T12:32:50;18.60;;;9.43;;
52816;SDS011;38687;43.330;21.924;2024-01-11T12:35:16;119.72;;;41.95;;
52816;SDS011;38687;43.330;21.924;2024-01-11T12:38:03;26.23;;;14.70;;
52816;SDS011;38687;43.330;21.924;2024-01-11T12:40:34;36.70;;;16.35;;
52816;SDS011;38687;43.330;21.924;2024-01-11T12:43:00;17.58;;;10.32;;
52816;SDS011;38687;43.330;21.924;2024-01-11T12:45:26;42.58;;;19.13;;
52816;SDS011;38687;43.330;21.924;2024-01-11T12:47:51;20.13;;;10.13;;
52816;SDS011;38687;43.330;21.924;2024-01-11T12:50:17;22.13;;;6.43;;
52816;SDS011;38687;43.330;21.924;2024-01-11T12:52:42;19.98;;;9.68;;
52816;SDS011;38687;43.330;21.924;2024-01-11T12:55:13;19.63;;;9.52;;
52816;SDS011;38687;43.330;21.924;2024-01-11T12:57:43;27.85;;;15.38;;
52816;SDS011;38687;43.330;21.924;2024-01-11T13:00:12;17.17;;;10.77;;
52816;SDS011;38687;43.330;21.924;2024-01-11T13:02:38;23.35;;;14.20;;
52816;SDS011;38687;43.330;21.924;2024-01-11T13:05:04;21.58;;;9.75;;
52816;SDS011;38687;43.330;21.924;2024-01-11T13:07:30;15.32;;;9.77;;
52816;SDS011;38687;43.330;21.924;2024-01-11T13:09:56;15.75;;;9.05;;
52816;SDS011;38687;43.330;21.924;2024-01-11T13:12:21;16.20;;;8.13;;
52816;SDS011;38687;43.330;21.924;2024-01-11T13:14:47;26.25;;;13.80;;
52816;SDS011;38687;43.330;21.924;2024-01-11T13:17:13;12.52;;;6.97;;
52816;SDS011;38687;43.330;21.924;2024-01-11T13:19:39;16.52;;;9.38;;
52816;SDS011;38687;43.330;21.924;2024-01-11T13:22:04;15.75;;;8.95;;
52816;SDS011;38687;43.330;21.924;2024-01-11T13:24:30;23.00;;;12.43;;
52816;SDS011;38687;43.330;21.924;2024-01-11T13:26:55;22.08;;;12.13;;
52816;SDS011;38687;43.330;21.924;2024-01-11T13:29:21;17.77;;;10.55;;
52816;SDS011;38687;43.330;21.924;2024-01-11T13:31:47;19.13;;;12.13;;
52816;SDS011;38687;43.330;21.924;2024-01-11T13:34:12;21.02;;;11.25;;
52816;SDS011;38687;43.330;21.924;2024-01-11T13:36:37;18.88;;;9.20;;
52816;SDS011;38687;43.330;21.924;2024-01-11T13:39:03;15.25;;;8.90;;
52816;SDS011;38687;43.330;21.924;2024-01-11T13:41:28;16.67;;;8.63;;
52816;SDS011;38687;43.330;21.924;2024-01-11T13:43:54;24.65;;;14.75;;
52816;SDS011;38687;43.330;21.924;2024-01-11T13:46:19;22.13;;;12.63;;
52816;SDS011;38687;43.330;21.924;2024-01-11T13:48:45;25.80;;;13.73;;
52816;SDS011;38687;43.330;21.924;2024-01-11T13:51:11;10.30;;;8.13;;
52816;SDS011;38687;43.330;21.924;2024-01-11T13:53:38;20.83;;;10.43;;
52816;SDS011;38687;43.330;21.924;2024-01-11T13:56:03;22.55;;;12.30;;
52816;SDS011;38687;43.330;21.924;2024-01-11T13:58:29;27.42;;;17.67;;
52816;SDS011;38687;43.330;21.924;2024-01-11T14:00:55;21.67;;;11.60;;
52816;SDS011;38687;43.330;21.924;2024-01-11T14:03:20;13.95;;;8.57;;
52816;SDS011;38687;43.330;21.924;2024-01-11T14:05:46;24.05;;;10.75;;
52816;SDS011;38687;43.330;21.924;2024-01-11T14:08:12;15.15;;;9.80;;
52816;SDS011;38687;43.330;21.924;2024-01-11T14:10:38;17.27;;;8.13;;